Flight Track Log - Related Links

Times and Time Zones

All times are in EST time to prevent confusion due to time zone crossing. See the DAL3878 flight status page for this flight to view local times or setup timezone preferences in your user account.


Time Position Orientation Groundspeed Altitude Reporting Facility
EST Latitude Longitude Course Direction KTS MPH feet Rate Location/Type
Sat 08:31:24 PM 42.2106 -83.3650 223° Southwest 141 162 1,400  Level Cleveland Center
Sat 08:32:49 PM 42.1639 -83.4231 223° Southwest 198 228 4,600 1,889 Climbing Cleveland Center
Sat 08:33:12 PM 42.1583 -83.4325 232° Southwest 186 214 4,800 2,400 Climbing Cleveland Center
Sat 08:33:44 PM 42.1397 -83.4928 247° West 247 284 6,800 3,290 Climbing Cleveland Center
Sat 08:34:14 PM 42.1547 -83.5283 300° West 245 282 8,200 2,110 Climbing Cleveland Center
Sat 08:35:15 PM 42.1981 -83.6139 304° West 267 307 10,000 2,146 Climbing Cleveland Center
Sat 08:36:17 PM 42.2775 -83.6608 336° Northwest 313 360 12,600 2,129 Climbing Cleveland Center
Sat 08:37:19 PM 42.3736 -83.6169 19° North 357 411 14,400 1,854 Climbing Cleveland Center
Sat 08:38:20 PM 42.4722 -83.5708 19° North 369 425 16,400 1,854 Climbing Cleveland Center
Sat 08:39:22 PM 42.5725 -83.5242 19° North 376 433 18,200 1,742 Climbing Cleveland Center
Sat 08:40:24 PM 42.6739 -83.4772 19° North 382 440 20,000 1,561 Climbing Cleveland Center
Sat 08:41:25 PM 42.7764 -83.4289 19° North 387 445 21,400 976 Climbing Cleveland Center
Sat 08:42:27 PM 42.8817 -83.3800 19° North 396 456 22,000 290 Climbing Cleveland Center
Sat 08:43:29 PM 42.9964 -83.3831 359° North 427 491 22,000  Level Cleveland Center
Sat 08:44:30 PM 43.1033 -83.4386 339° North 416 479 22,000  Level Cleveland Center
Sat 08:45:32 PM 43.2331 -83.5064 339° North 418 481 22,000  Level Cleveland Center
Sat 08:46:33 PM 43.3397 -83.5636 339° North 415 478 22,000  Level Cleveland Center
Sat 08:47:35 PM 43.4467 -83.6203 339° North 413 475 22,000  Level Cleveland Center
Sat 08:48:36 PM 43.5522 -83.6753 339° North 407 468 22,000  Level Cleveland Center
Sat 08:49:38 PM 43.6575 -83.7325 339° North 406 467 22,000  Level Cleveland Center
Sat 08:50:39 PM 43.7667 -83.7906 339° North 404 465 22,000  Level Cleveland Center
Sat 08:51:41 PM 43.8717 -83.8464 339° North 404 465 22,000  Level Cleveland Center
Sat 08:52:42 PM 43.9772 -83.9044 338° Northwest 408 470 22,000  Level Cleveland Center
Sat 08:53:44 PM 44.0817 -83.9622 338° Northwest 407 468 22,000  Level Cleveland Center
Sat 08:54:45 PM 44.2078 -84.0303 339° North 406 467 22,000 -244 Level Cleveland Center
Sat 08:55:47 PM 44.3064 -84.0828 339° North 383 441 21,500 -1,073 Descending Cleveland Center
Sat 08:56:48 PM 44.3981 -84.1339 338° Northwest 360 414 19,800 -1,707 Descending Cleveland Center
Sat 08:57:50 PM 44.4914 -84.1850 339° North 360 414 18,000 -1,756 Descending Cleveland Center
Sat 08:58:51 PM 44.5822 -84.2353 338° Northwest 355 409 16,200 -1,756 Descending Cleveland Center
Sat 08:59:53 PM 44.6719 -84.2875 338° Northwest 353 406 14,400 -1,756 Descending Cleveland Center
Sat 09:00:54 PM 44.7592 -84.3381 338° Northwest 348 400 12,600 -1,796 Descending Cleveland Center
Sat 09:02:10 PM 44.8678 -84.3972 339° North 309 356 10,300 -1,696 Descending Minneapolis Center
Sat 09:03:12 PM 44.9450 -84.4403 338° Northwest 280 322 8,700 -1,500 Descending Minneapolis Center
Sat 09:04:14 PM 45.0117 -84.4786 338° Northwest 268 308 7,200 -1,463 Descending Minneapolis Center
Sat 09:05:15 PM 45.0814 -84.5022 347° North 261 300 5,700 -1,512 Descending Minneapolis Center
Sat 09:06:17 PM 45.1553 -84.5261 347° North 256 295 4,100 -823 Descending Minneapolis Center
Sat 09:07:19 PM 45.2225 -84.5483 347° North 252 290 4,000 -484 Descending Minneapolis Center
Sat 09:08:21 PM 45.2947 -84.5753 345° North 251 289 3,100 -537 Descending Minneapolis Center
Sat 09:09:22 PM 45.3583 -84.6019 344° North 244 281 2,900 -98 Descending Minneapolis Center
Sat 09:10:24 PM 45.4211 -84.6314 342° North 223 257 2,900  Level Minneapolis Center
Sat 09:11:25 PM 45.4706 -84.6558 341° North 193 222 2,900 -146 Level Minneapolis Center
Sat 09:12:27 PM 45.5008 -84.7003 314° West 175 201 2,600 -290 Descending Minneapolis Center

Login

Don't have an account? Register now (free) for customized features, flight alerts, and more!